Time;durP1;ratioP1;P1;durP2;ratioP2;P2;SDS_P1;SDS_P2;PMS_P1;PMS_P2;Temp;Humidity;BMP_temperature;BMP_pressure;BME280_temperature;BME280_humidity;BME280_pressure;Samples;Min_cycle;Max_cycle;Signal;HPM_P1;HPM_P2
2023/12/24 00:00:30;;;;;;;3.90;2.37;;;20.80;56.70;;;;;;5090560;28;20882;-70
2023/12/24 00:02:56;;;;;;;4.23;2.83;;;20.80;56.70;;;;;;5090509;28;20242;-69
2023/12/24 00:05:21;;;;;;;5.00;2.43;;;20.80;56.70;;;;;;5090519;28;20169;-70
2023/12/24 00:07:47;;;;;;;3.03;2.13;;;20.80;56.70;;;;;;5090338;28;20204;-70
2023/12/24 00:10:12;;;;;;;2.70;2.27;;;20.80;56.70;;;;;;5090339;28;20755;-69
2023/12/24 00:12:38;;;;;;;3.80;2.70;;;20.80;56.70;;;;;;5090322;28;20182;-70
2023/12/24 00:15:05;;;;;;;2.70;2.27;;;20.80;56.70;;;;;;5090381;28;20177;-69
2023/12/24 00:17:31;;;;;;;3.50;2.40;;;20.80;56.70;;;;;;5090111;28;20201;-70
2023/12/24 00:19:58;;;;;;;6.53;2.77;;;20.80;56.70;;;;;;5090099;28;20940;-69
2023/12/24 00:22:23;;;;;;;3.60;2.47;;;20.80;56.70;;;;;;5090204;28;20216;-69
2023/12/24 00:24:49;;;;;;;4.43;2.27;;;20.80;56.70;;;;;;5090169;28;20930;-70
2023/12/24 00:27:15;;;;;;;3.83;2.23;;;20.80;56.70;;;;;;5090088;28;20193;-70
2023/12/24 00:29:40;;;;;;;3.50;2.20;;;20.80;56.70;;;;;;5090189;28;20481;-70
2023/12/24 00:32:06;;;;;;;3.70;2.40;;;20.80;56.70;;;;;;5090456;28;20180;-70
2023/12/24 00:34:32;;;;;;;2.27;1.90;;;20.80;56.70;;;;;;5089918;28;20173;-69
2023/12/24 00:36:57;;;;;;;4.50;1.93;;;20.80;56.70;;;;;;5090027;28;20248;-70
2023/12/24 00:39:23;;;;;;;3.67;2.20;;;20.80;56.70;;;;;;5090122;28;20173;-69
2023/12/24 00:41:48;;;;;;;3.27;1.83;;;20.80;56.70;;;;;;5089979;28;20707;-70
2023/12/24 00:44:14;;;;;;;4.03;2.70;;;20.70;56.70;;;;;;5089935;28;20590;-69
2023/12/24 00:46:39;;;;;;;3.93;2.40;;;20.80;56.70;;;;;;5089706;28;20201;-70
2023/12/24 00:49:05;;;;;;;2.57;2.10;;;20.80;56.70;;;;;;5089880;28;20212;-70
2023/12/24 00:51:31;;;;;;;3.20;2.40;;;20.80;56.70;;;;;;5089962;28;20677;-69
2023/12/24 00:53:56;;;;;;;3.13;2.03;;;20.80;56.70;;;;;;5089882;28;20207;-69
2023/12/24 00:56:22;;;;;;;5.17;2.57;;;20.70;56.70;;;;;;5089779;28;20201;-70
2023/12/24 00:58:47;;;;;;;4.00;3.07;;;20.70;56.70;;;;;;5092314;28;20185;-70
2023/12/24 01:01:13;;;;;;;4.40;2.37;;;20.70;56.70;;;;;;5094105;28;20280;-70
2023/12/24 01:03:38;;;;;;;3.03;1.73;;;20.70;56.70;;;;;;5092385;28;20557;-70
2023/12/24 01:06:04;;;;;;;2.77;2.40;;;20.70;56.70;;;;;;5093655;28;20178;-70
2023/12/24 01:08:30;;;;;;;3.40;2.47;;;20.70;56.60;;;;;;5093536;28;20205;-69
2023/12/24 01:10:56;;;;;;;2.63;2.20;;;20.70;56.70;;;;;;5093633;28;20193;-69
2023/12/24 01:13:22;;;;;;;4.03;2.47;;;20.70;56.70;;;;;;5093852;28;20412;-69
2023/12/24 01:15:48;;;;;;;3.63;2.93;;;20.70;56.70;;;;;;5093510;28;20184;-69
2023/12/24 01:18:14;;;;;;;5.10;2.70;;;20.70;56.70;;;;;;5093368;28;20215;-69
2023/12/24 01:20:40;;;;;;;2.17;1.87;;;20.70;56.70;;;;;;5093453;28;20804;-69
2023/12/24 01:23:06;;;;;;;3.33;2.80;;;20.70;56.70;;;;;;5091960;28;20422;-69
2023/12/24 01:25:32;;;;;;;3.20;2.50;;;20.70;56.70;;;;;;5093347;28;20415;-69
2023/12/24 01:27:57;;;;;;;2.17;1.97;;;20.70;56.70;;;;;;5093516;28;20197;-70
2023/12/24 01:30:23;;;;;;;2.60;2.00;;;20.70;56.70;;;;;;5093233;28;21023;-70
2023/12/24 01:32:48;;;;;;;3.83;1.93;;;20.70;56.70;;;;;;5093168;28;20176;-69
2023/12/24 01:35:14;;;;;;;3.43;2.30;;;20.70;56.70;;;;;;5093174;28;20205;-69
2023/12/24 01:37:39;;;;;;;3.37;2.00;;;20.70;56.70;;;;;;5093087;28;20190;-70
2023/12/24 01:40:05;;;;;;;3.33;2.40;;;20.70;56.70;;;;;;5093113;28;20180;-70
2023/12/24 01:42:31;;;;;;;3.70;2.20;;;20.70;56.70;;;;;;5092973;28;20185;-69
2023/12/24 01:44:57;;;;;;;3.00;2.07;;;20.70;56.70;;;;;;5093014;28;20502;-70
2023/12/24 01:47:22;;;;;;;3.13;2.33;;;20.70;56.70;;;;;;5092865;28;20197;-70
2023/12/24 01:49:49;;;;;;;3.63;2.57;;;20.70;56.70;;;;;;5092749;28;20201;-69
2023/12/24 01:52:16;;;;;;;2.83;2.10;;;20.70;56.70;;;;;;5092903;28;20245;-69
2023/12/24 01:54:45;;;;;;;3.60;2.40;;;20.70;56.80;;;;;;5091453;28;20938;-69
2023/12/24 01:57:11;;;;;;;2.63;2.00;;;20.70;56.70;;;;;;5092709;28;20486;-69
2023/12/24 01:59:37;;;;;;;3.33;2.20;;;20.70;56.70;;;;;;5092751;28;20411;-69
2023/12/24 02:02:03;;;;;;;3.70;2.03;;;20.70;56.70;;;;;;5092778;28;20537;-69
2023/12/24 02:04:30;;;;;;;2.87;2.17;;;20.60;56.60;;;;;;5092616;28;20423;-70
2023/12/24 02:06:55;;;;;;;3.27;1.93;;;20.70;56.80;;;;;;5092761;28;20469;-70
2023/12/24 02:09:21;;;;;;;3.17;2.47;;;20.60;56.70;;;;;;5090409;28;21008;-69
2023/12/24 02:11:46;;;;;;;3.23;2.00;;;20.70;56.70;;;;;;5092465;28;20169;-69
2023/12/24 02:14:12;;;;;;;4.60;2.33;;;20.70;56.80;;;;;;5092700;28;20541;-70
2023/12/24 02:16:41;;;;;;;3.50;2.07;;;20.70;56.70;;;;;;5092185;28;20679;-70
2023/12/24 02:19:22;;;;;;;2.90;2.37;;;20.70;56.70;;;;;;5092377;28;20162;-69
2023/12/24 02:21:48;;;;;;;3.07;2.33;;;20.70;56.80;;;;;;5092305;28;20403;-70
2023/12/24 02:24:15;;;;;;;2.27;2.07;;;20.70;56.80;;;;;;5092318;28;20411;-69
2023/12/24 02:26:57;;;;;;;2.40;1.93;;;20.70;56.80;;;;;;5092111;28;20228;-70
2023/12/24 02:29:32;;;;;;;2.73;2.30;;;20.70;56.80;;;;;;5092114;28;20538;-70
2023/12/24 02:32:14;;;;;;;2.37;1.60;;;20.60;56.70;;;;;;5092366;28;20475;-70
2023/12/24 02:34:43;;;;;;;3.50;2.47;;;20.70;56.80;;;;;;5092038;28;20385;-70
2023/12/24 02:37:10;;;;;;;3.97;2.67;;;20.60;56.70;;;;;;5092104;28;20430;-69
2023/12/24 02:39:39;;;;;;;4.00;2.37;;;20.60;56.70;;;;;;5092000;28;20810;-69
2023/12/24 02:42:06;;;;;;;3.03;2.10;;;20.60;56.70;;;;;;5091908;28;20399;-70
2023/12/24 02:44:31;;;;;;;4.23;2.10;;;20.60;56.70;;;;;;5091867;28;20834;-70
2023/12/24 02:46:57;;;;;;;3.27;2.40;;;20.60;56.70;;;;;;5090329;28;20478;-69
2023/12/24 02:49:23;;;;;;;2.10;1.67;;;20.60;56.70;;;;;;5091705;28;20284;-69
2023/12/24 02:51:48;;;;;;;8.10;2.13;;;20.60;56.70;;;;;;5091931;28;20177;-69
2023/12/24 02:54:14;;;;;;;3.10;1.93;;;20.60;56.70;;;;;;5091691;28;20178;-70
2023/12/24 02:56:39;;;;;;;3.07;1.80;;;20.60;56.70;;;;;;5091733;28;20197;-70
2023/12/24 02:59:05;;;;;;;3.60;2.37;;;20.60;56.80;;;;;;5091482;28;20598;-69
2023/12/24 03:01:31;;;;;;;3.53;2.17;;;20.60;56.70;;;;;;5091520;28;20177;-70
2023/12/24 03:03:58;;;;;;;2.70;2.33;;;20.60;56.70;;;;;;5091429;28;20695;-69
2023/12/24 03:06:23;;;;;;;2.53;2.03;;;20.60;56.70;;;;;;5091640;28;20189;-69
2023/12/24 03:08:49;;;;;;;3.13;2.20;;;20.60;56.70;;;;;;5091236;28;20563;-70
2023/12/24 03:11:15;;;;;;;2.80;2.27;;;20.60;56.70;;;;;;5091355;28;20174;-70
2023/12/24 03:13:40;;;;;;;2.00;1.80;;;20.60;56.70;;;;;;5091236;28;20199;-70
2023/12/24 03:16:06;;;;;;;3.77;2.10;;;20.60;56.80;;;;;;5091258;28;20665;-69
2023/12/24 03:18:31;;;;;;;3.50;2.00;;;20.60;56.70;;;;;;5090931;28;20209;-69
2023/12/24 03:20:57;;;;;;;1.83;1.33;;;20.60;56.70;;;;;;5090777;28;20190;-69
2023/12/24 03:23:23;;;;;;;2.70;1.80;;;20.60;56.70;;;;;;5090823;28;20179;-70
2023/12/24 03:25:49;;;;;;;1.87;1.57;;;20.60;56.70;;;;;;5091315;28;20507;-70
2023/12/24 03:28:14;;;;;;;2.87;2.33;;;20.60;56.70;;;;;;5090904;28;20196;-69
2023/12/24 03:30:40;;;;;;;3.17;1.97;;;20.60;56.70;;;;;;5090885;28;20180;-70
2023/12/24 03:33:05;;;;;;;2.70;1.90;;;20.60;56.70;;;;;;5090875;28;20185;-69
2023/12/24 03:35:31;;;;;;;2.63;1.80;;;20.60;56.70;;;;;;5091162;28;20184;-70
2023/12/24 03:37:57;;;;;;;2.53;1.60;;;20.60;56.70;;;;;;5090802;28;20257;-69
2023/12/24 03:40:22;;;;;;;2.50;1.70;;;20.60;56.70;;;;;;5091059;28;20185;-69
2023/12/24 03:42:48;;;;;;;3.47;2.17;;;20.60;56.70;;;;;;5090745;28;20208;-70
2023/12/24 03:45:13;;;;;;;2.33;2.13;;;20.60;56.70;;;;;;5090778;28;20182;-68
2023/12/24 03:47:39;;;;;;;3.33;2.10;;;20.60;56.80;;;;;;5090674;28;20689;-69
2023/12/24 03:50:05;;;;;;;2.30;1.93;;;20.60;56.70;;;;;;5090556;28;20201;-69
2023/12/24 03:52:31;;;;;;;2.63;1.80;;;20.60;56.70;;;;;;5090878;28;20628;-69
2023/12/24 03:54:57;;;;;;;2.47;1.90;;;20.60;56.70;;;;;;5090422;28;20835;-70
2023/12/24 03:57:22;;;;;;;2.50;1.80;;;20.60;56.70;;;;;;5090374;28;20449;-69
2023/12/24 03:59:48;;;;;;;2.87;1.63;;;20.60;56.70;;;;;;5090500;28;20181;-70
2023/12/24 04:02:14;;;;;;;2.20;1.50;;;20.60;56.70;;;;;;5090515;28;20205;-70
2023/12/24 04:04:45;;;;;;;1.60;1.50;;;20.60;56.70;;;;;;5090418;28;20171;-70
2023/12/24 04:07:11;;;;;;;3.30;1.83;;;20.60;56.70;;;;;;5090702;28;20553;-69
2023/12/24 04:09:37;;;;;;;2.33;1.77;;;20.60;56.70;;;;;;5090258;28;20466;-70
2023/12/24 04:12:03;;;;;;;1.90;1.40;;;20.60;56.70;;;;;;5090164;28;20234;-69
2023/12/24 04:14:28;;;;;;;2.33;1.73;;;20.60;56.70;;;;;;5088832;28;20177;-70
2023/12/24 04:16:54;;;;;;;4.53;2.03;;;20.60;56.70;;;;;;5090102;28;20461;-69
2023/12/24 04:19:21;;;;;;;2.80;1.90;;;20.60;56.70;;;;;;5090301;28;20162;-69
2023/12/24 04:21:47;;;;;;;2.20;1.50;;;20.60;56.70;;;;;;5090197;28;20181;-69
2023/12/24 04:24:13;;;;;;;2.03;1.70;;;20.60;56.70;;;;;;5090223;28;20411;-69
2023/12/24 04:26:38;;;;;;;3.77;2.33;;;20.60;56.70;;;;;;5090052;28;20303;-70
2023/12/24 04:29:04;;;;;;;2.60;1.53;;;20.60;56.70;;;;;;5089987;28;20288;-70
2023/12/24 04:31:30;;;;;;;1.50;1.40;;;20.60;56.70;;;;;;5090125;28;20637;-70
2023/12/24 04:33:55;;;;;;;1.73;1.43;;;20.60;56.70;;;;;;5095292;28;20165;-69
2023/12/24 04:36:21;;;;;;;2.30;1.90;;;20.60;56.70;;;;;;5096682;28;20177;-69
2023/12/24 04:38:47;;;;;;;2.37;1.80;;;20.60;56.70;;;;;;5096773;28;20181;-70
2023/12/24 04:41:17;;;;;;;2.70;2.17;;;20.60;56.70;;;;;;5096781;28;20581;-70
2023/12/24 04:43:42;;;;;;;2.40;1.97;;;20.60;56.70;;;;;;5096781;28;20173;-70
2023/12/24 04:46:08;;;;;;;2.13;1.67;;;20.60;56.70;;;;;;5096655;28;21128;-70
2023/12/24 04:48:34;;;;;;;2.50;1.50;;;20.60;56.70;;;;;;5096614;28;20265;-70
2023/12/24 04:50:59;;;;;;;2.20;1.80;;;20.60;56.80;;;;;;5096717;28;20170;-70
2023/12/24 04:53:25;;;;;;;2.07;1.47;;;20.60;56.70;;;;;;5096692;28;20178;-70
2023/12/24 04:55:50;;;;;;;1.93;1.63;;;20.60;56.70;;;;;;5096693;28;20201;-69
2023/12/24 04:58:16;;;;;;;2.70;1.80;;;20.60;56.70;;;;;;5096503;28;20193;-69
2023/12/24 05:00:42;;;;;;;3.10;1.60;;;20.60;56.70;;;;;;5096383;28;20223;-69
2023/12/24 05:03:07;;;;;;;1.93;1.50;;;20.60;56.70;;;;;;5096551;28;20182;-70
2023/12/24 05:05:33;;;;;;;2.00;1.67;;;20.60;56.70;;;;;;5096588;28;20417;-70
2023/12/24 05:07:59;;;;;;;1.83;1.50;;;20.60;56.70;;;;;;5096673;28;20197;-70
2023/12/24 05:10:24;;;;;;;3.10;1.80;;;20.50;56.70;;;;;;5096661;28;20615;-69
2023/12/24 05:12:50;;;;;;;3.50;1.90;;;20.60;56.70;;;;;;5096447;28;20169;-69
2023/12/24 05:15:16;;;;;;;2.40;1.63;;;20.60;56.80;;;;;;5096383;28;20180;-70
2023/12/24 05:17:42;;;;;;;2.23;1.77;;;20.50;56.70;;;;;;5095595;28;20287;-70
2023/12/24 05:20:08;;;;;;;3.33;1.60;;;20.60;56.80;;;;;;5096337;28;21108;-69
2023/12/24 05:22:34;;;;;;;2.00;1.50;;;20.50;56.70;;;;;;5096488;28;20223;-70
2023/12/24 05:24:59;;;;;;;1.60;1.50;;;20.50;56.70;;;;;;5096376;28;20423;-69
2023/12/24 05:27:26;;;;;;;2.53;2.17;;;20.60;56.80;;;;;;5096313;28;20243;-69
2023/12/24 05:29:52;;;;;;;3.03;1.50;;;20.50;56.70;;;;;;5096303;28;20235;-68
2023/12/24 05:32:17;;;;;;;2.50;1.80;;;20.50;56.70;;;;;;5096412;28;20446;-70
2023/12/24 05:34:43;;;;;;;1.60;1.40;;;20.50;56.70;;;;;;5096269;28;20184;-69
2023/12/24 05:37:09;;;;;;;2.03;1.80;;;20.50;56.70;;;;;;5096263;28;20626;-69
2023/12/24 05:39:34;;;;;;;2.13;1.67;;;20.50;56.70;;;;;;5096215;28;20181;-69
2023/12/24 05:42:00;;;;;;;2.67;1.80;;;20.50;56.70;;;;;;5096206;28;20187;-70
2023/12/24 05:44:25;;;;;;;1.60;1.47;;;20.50;56.70;;;;;;5094003;28;20177;-69
2023/12/24 05:46:52;;;;;;;2.30;1.60;;;20.50;56.70;;;;;;5092922;28;20197;-69
2023/12/24 05:49:17;;;;;;;2.70;1.57;;;20.50;56.70;;;;;;5092871;28;20201;-70
2023/12/24 05:51:43;;;;;;;3.00;1.80;;;20.50;56.70;;;;;;5092888;28;20407;-70
2023/12/24 05:54:08;;;;;;;2.40;1.60;;;20.50;56.70;;;;;;5092867;28;20173;-69
2023/12/24 05:56:34;;;;;;;2.13;1.90;;;20.50;56.70;;;;;;5092774;28;20197;-70
2023/12/24 05:59:00;;;;;;;1.70;1.37;;;20.50;56.70;;;;;;5092711;28;20568;-69
2023/12/24 06:01:25;;;;;;;1.90;1.70;;;20.50;57.30;;;;;;5092748;28;20278;-70
2023/12/24 06:03:51;;;;;;;2.37;1.77;;;20.50;56.70;;;;;;5092637;28;20227;-69
2023/12/24 06:06:17;;;;;;;1.63;1.37;;;20.50;56.70;;;;;;5092609;28;20189;-70
2023/12/24 06:08:42;;;;;;;3.23;1.87;;;20.50;56.70;;;;;;5092481;28;20228;-70
2023/12/24 06:11:18;;;;;;;2.13;1.70;;;20.50;56.70;;;;;;5074204;28;20185;-69
2023/12/24 06:13:44;;;;;;;2.30;1.67;;;20.50;56.70;;;;;;5092559;28;20245;-70
2023/12/24 06:16:11;;;;;;;2.43;1.37;;;20.50;56.70;;;;;;5092337;28;20499;-69
2023/12/24 06:18:37;;;;;;;2.97;1.97;;;20.50;56.60;;;;;;5092269;28;20209;-70
2023/12/24 06:21:04;;;;;;;1.63;1.23;;;20.50;56.70;;;;;;5092402;28;20493;-70
2023/12/24 06:23:31;;;;;;;1.90;1.50;;;20.50;56.60;;;;;;5092560;28;20237;-70
2023/12/24 06:25:58;;;;;;;2.37;1.53;;;20.50;56.60;;;;;;5092145;28;20914;-70
2023/12/24 06:28:23;;;;;;;2.10;1.70;;;20.50;56.60;;;;;;5092096;28;20484;-69
2023/12/24 06:30:49;;;;;;;2.03;1.40;;;20.50;56.70;;;;;;5092156;28;20830;-70
2023/12/24 06:33:15;;;;;;;2.13;1.50;;;20.50;56.60;;;;;;5092177;28;20580;-69
2023/12/24 06:35:40;;;;;;;3.20;1.30;;;20.50;56.60;;;;;;5092075;28;20223;-69
2023/12/24 06:38:06;;;;;;;1.40;1.10;;;20.50;56.60;;;;;;5091888;28;20694;-69
2023/12/24 06:40:33;;;;;;;1.67;1.40;;;20.60;56.70;;;;;;5091953;28;20227;-70
2023/12/24 06:42:59;;;;;;;1.80;1.40;;;20.60;56.70;;;;;;5091916;28;20423;-70
2023/12/24 06:45:24;;;;;;;2.33;1.70;;;20.50;56.60;;;;;;5091883;28;20473;-70
2023/12/24 06:47:50;;;;;;;1.70;1.20;;;20.50;56.60;;;;;;5091804;28;20204;-70
2023/12/24 06:50:16;;;;;;;1.83;1.43;;;20.50;56.60;;;;;;5091931;28;20656;-69
2023/12/24 06:52:41;;;;;;;3.23;1.40;;;20.60;56.70;;;;;;5092002;28;20182;-70
2023/12/24 06:55:07;;;;;;;1.60;1.20;;;20.60;56.70;;;;;;5091660;28;20177;-70
2023/12/24 06:57:33;;;;;;;1.40;1.20;;;20.60;56.70;;;;;;5091402;28;20205;-70
2023/12/24 06:59:58;;;;;;;2.17;1.70;;;20.60;56.70;;;;;;5091591;28;20826;-70
2023/12/24 07:02:24;;;;;;;1.60;1.40;;;20.60;56.70;;;;;;5091795;28;20209;-70
2023/12/24 07:04:50;;;;;;;2.07;1.60;;;20.60;56.70;;;;;;5090092;28;20188;-69
2023/12/24 07:07:15;;;;;;;2.00;1.43;;;20.60;56.70;;;;;;5091411;28;20205;-70
2023/12/24 07:09:41;;;;;;;2.13;1.40;;;20.60;56.70;;;;;;5091341;28;20233;-69
2023/12/24 07:12:07;;;;;;;1.67;1.13;;;20.70;56.70;;;;;;5091332;28;20170;-69
2023/12/24 07:14:32;;;;;;;1.60;1.27;;;20.70;56.70;;;;;;5091389;28;20174;-69
2023/12/24 07:16:58;;;;;;;1.93;1.30;;;20.70;56.70;;;;;;5091114;28;20221;-70
2023/12/24 07:19:23;;;;;;;1.73;1.30;;;20.70;56.60;;;;;;5073024;28;20186;-70
2023/12/24 07:21:49;;;;;;;2.80;2.07;;;20.80;56.70;;;;;;5091159;28;20235;-70
2023/12/24 07:24:15;;;;;;;2.60;1.60;;;20.80;56.70;;;;;;5091441;28;20181;-70
2023/12/24 07:26:40;;;;;;;2.10;1.50;;;20.80;56.70;;;;;;5091231;28;20540;-70
2023/12/24 07:29:06;;;;;;;1.70;1.60;;;20.80;56.60;;;;;;5072643;28;20201;-70
2023/12/24 07:31:31;;;;;;;2.30;1.40;;;20.80;56.60;;;;;;5091017;28;20647;-70
2023/12/24 07:33:57;;;;;;;1.60;1.33;;;20.80;56.60;;;;;;5090869;28;20196;-70
2023/12/24 07:36:23;;;;;;;1.80;1.30;;;20.80;56.60;;;;;;5072632;28;20180;-70
2023/12/24 07:38:49;;;;;;;1.57;1.20;;;20.80;56.60;;;;;;5089268;28;20282;-70
2023/12/24 07:41:14;;;;;;;2.00;1.57;;;20.80;57.10;;;;;;5089540;28;20452;-70
2023/12/24 07:43:40;;;;;;;1.90;1.23;;;20.80;56.50;;;;;;5090768;28;20658;-70
2023/12/24 07:46:06;;;;;;;2.00;1.20;;;20.90;56.60;;;;;;5089416;28;20280;-70
2023/12/24 07:48:31;;;;;;;1.20;1.00;;;20.80;56.50;;;;;;5090515;28;20204;-70
2023/12/24 07:50:57;;;;;;;1.53;1.37;;;20.90;56.60;;;;;;5089285;28;20408;-69
2023/12/24 07:53:23;;;;;;;2.40;1.60;;;20.90;56.60;;;;;;5090673;28;20624;-70
2023/12/24 07:55:49;;;;;;;1.93;1.30;;;20.90;56.60;;;;;;5090573;28;20189;-70
2023/12/24 07:58:14;;;;;;;1.43;1.10;;;20.90;56.60;;;;;;5087700;28;20200;-70
2023/12/24 08:00:40;;;;;;;1.30;1.10;;;20.90;56.60;;;;;;5090587;28;20411;-70
2023/12/24 08:03:06;;;;;;;1.30;1.17;;;20.90;56.60;;;;;;5089403;28;20193;-69
2023/12/24 08:05:31;;;;;;;1.10;0.93;;;20.90;56.60;;;;;;5088965;28;20222;-70
2023/12/24 08:07:57;;;;;;;1.77;1.30;;;20.90;57.10;;;;;;5088364;28;20822;-70
2023/12/24 08:10:23;;;;;;;1.60;1.10;;;20.90;56.50;;;;;;5090809;28;20213;-70
2023/12/24 08:12:48;;;;;;;2.27;1.20;;;20.90;56.50;;;;;;5090250;28;20177;-69
2023/12/24 08:15:14;;;;;;;1.60;1.23;;;20.90;56.50;;;;;;5072195;28;20227;-69
2023/12/24 08:17:43;;;;;;;1.77;1.30;;;21.00;56.60;;;;;;5090149;28;20197;-69
2023/12/24 08:20:09;;;;;;;2.20;1.47;;;21.00;56.60;;;;;;5090245;28;20185;-69
2023/12/24 08:22:36;;;;;;;2.10;1.40;;;21.00;56.60;;;;;;5088977;28;20415;-69
2023/12/24 08:25:02;;;;;;;1.60;1.50;;;21.00;56.60;;;;;;5090698;28;20420;-69
2023/12/24 08:27:27;;;;;;;1.20;1.00;;;20.90;56.50;;;;;;5090178;28;20435;-69
2023/12/24 08:29:55;;;;;;;1.43;1.00;;;20.90;56.50;;;;;;5088921;28;20211;-69
2023/12/24 08:32:21;;;;;;;1.77;1.30;;;21.00;56.60;;;;;;5088908;28;20177;-69
2023/12/24 08:34:47;;;;;;;1.87;1.20;;;21.00;56.60;;;;;;5088612;28;20415;-70
2023/12/24 08:37:13;;;;;;;1.40;1.03;;;21.00;56.60;;;;;;5090126;28;20426;-69
2023/12/24 08:39:38;;;;;;;1.40;1.10;;;21.00;56.50;;;;;;5090190;28;20174;-69
2023/12/24 08:42:04;;;;;;;1.43;1.10;;;21.00;56.50;;;;;;5088808;28;20227;-69
2023/12/24 08:44:30;;;;;;;1.83;1.30;;;21.00;56.50;;;;;;5088770;28;20212;-70
2023/12/24 08:46:55;;;;;;;1.40;1.20;;;21.00;56.60;;;;;;5088755;28;20723;-69
2023/12/24 08:49:21;;;;;;;1.30;1.03;;;21.00;56.60;;;;;;5088657;28;20271;-69
2023/12/24 08:51:47;;;;;;;1.40;1.20;;;21.00;56.50;;;;;;5090071;28;20538;-70
2023/12/24 08:54:12;;;;;;;2.00;1.40;;;21.00;56.60;;;;;;5088547;28;20182;-70
2023/12/24 08:56:38;;;;;;;1.60;1.37;;;21.00;56.50;;;;;;5089860;28;20201;-69
2023/12/24 08:59:06;;;;;;;2.00;1.10;;;21.00;56.60;;;;;;5088710;28;20178;-69
2023/12/24 09:01:33;;;;;;;1.40;1.30;;;21.00;56.60;;;;;;5089967;28;20167;-69
2023/12/24 09:03:59;;;;;;;3.23;1.20;;;21.00;56.60;;;;;;5088390;28;20489;-69
2023/12/24 09:06:24;;;;;;;2.00;1.30;;;21.00;56.60;;;;;;5090065;28;20450;-69
2023/12/24 09:08:50;;;;;;;1.63;1.20;;;21.00;56.60;;;;;;5089877;28;20621;-69
2023/12/24 09:11:15;;;;;;;1.43;1.30;;;21.00;56.60;;;;;;5088549;28;20177;-69
2023/12/24 09:13:41;;;;;;;1.40;1.10;;;21.00;56.60;;;;;;5071949;28;20177;-69
2023/12/24 09:16:07;;;;;;;3.50;1.40;;;21.00;56.60;;;;;;5090331;28;20538;-69
2023/12/24 09:18:33;;;;;;;2.13;1.20;;;21.00;56.60;;;;;;5088690;28;20216;-69
2023/12/24 09:20:58;;;;;;;2.30;1.43;;;21.00;56.60;;;;;;5093015;28;20407;-69
2023/12/24 09:23:24;;;;;;;1.30;1.10;;;21.00;56.60;;;;;;5094474;28;20250;-69
2023/12/24 09:25:50;;;;;;;1.30;1.17;;;21.00;56.60;;;;;;5094030;28;20184;-69
2023/12/24 09:28:15;;;;;;;1.63;1.27;;;21.00;56.60;;;;;;5093928;28;20193;-69
2023/12/24 09:30:41;;;;;;;1.93;1.27;;;21.00;56.70;;;;;;5093780;28;20205;-69
2023/12/24 09:33:07;;;;;;;1.77;1.17;;;21.00;56.70;;;;;;5075263;28;20260;-68
2023/12/24 09:35:32;;;;;;;1.57;1.20;;;21.00;56.70;;;;;;5093712;28;20170;-69
2023/12/24 09:37:59;;;;;;;1.73;1.27;;;21.00;56.70;;;;;;5093465;28;20270;-69
2023/12/24 09:40:24;;;;;;;1.40;1.20;;;21.00;56.70;;;;;;5093223;28;20173;-69
2023/12/24 09:42:51;;;;;;;1.90;1.20;;;21.00;56.70;;;;;;5091796;28;20658;-70
2023/12/24 09:45:16;;;;;;;2.00;1.30;;;21.00;56.70;;;;;;5091759;28;20231;-70
2023/12/24 09:47:42;;;;;;;1.57;1.20;;;21.00;57.30;;;;;;5093097;28;20902;-69
2023/12/24 09:50:07;;;;;;;1.20;1.00;;;21.00;56.70;;;;;;5092986;28;20204;-70
2023/12/24 09:52:34;;;;;;;1.60;1.30;;;21.00;56.70;;;;;;5091607;28;20189;-69
2023/12/24 09:55:00;;;;;;;1.60;1.33;;;21.00;56.70;;;;;;5093081;28;20603;-69
2023/12/24 09:57:25;;;;;;;1.50;1.30;;;21.00;56.70;;;;;;5087186;28;20436;-70
2023/12/24 09:59:51;;;;;;;4.20;1.40;;;21.00;56.70;;;;;;5071833;28;20420;-69
2023/12/24 10:02:16;;;;;;;2.40;1.63;;;21.00;56.70;;;;;;5073119;28;20194;-70
2023/12/24 10:04:42;;;;;;;1.70;1.30;;;21.00;56.80;;;;;;5071515;28;20269;-69
2023/12/24 10:07:09;;;;;;;2.07;1.37;;;21.00;56.80;;;;;;5072260;28;20193;-70
2023/12/24 10:09:43;;;;;;;1.80;1.20;;;21.00;56.80;;;;;;5070835;28;20248;-69
2023/12/24 10:12:09;;;;;;;1.90;1.50;;;21.00;56.80;;;;;;5070914;28;20415;-69
2023/12/24 10:14:37;;;;;;;2.03;1.40;;;21.00;56.80;;;;;;5072275;28;20405;-69
2023/12/24 10:17:03;;;;;;;2.00;1.13;;;21.00;56.80;;;;;;5070668;28;20812;-68
2023/12/24 10:19:31;;;;;;;1.53;1.43;;;21.00;56.80;;;;;;5070999;28;20452;-69
2023/12/24 10:22:07;;;;;;;1.90;1.20;;;21.00;56.80;;;;;;5072246;28;20412;-69
2023/12/24 10:24:41;;;;;;;2.73;1.40;;;21.00;56.80;;;;;;5072439;28;20408;-69
2023/12/24 10:27:08;;;;;;;2.30;1.20;;;21.00;56.80;;;;;;5070583;28;20440;-69
2023/12/24 10:29:35;;;;;;;1.60;1.17;;;21.00;56.80;;;;;;5071878;28;20467;-69
2023/12/24 10:32:01;;;;;;;1.87;1.30;;;21.00;56.80;;;;;;5071623;28;20415;-69
2023/12/24 10:34:26;;;;;;;1.63;1.10;;;21.00;56.80;;;;;;5069936;28;20923;-69
2023/12/24 10:36:52;;;;;;;1.50;1.07;;;21.00;56.80;;;;;;5084214;28;20202;-69
2023/12/24 10:39:24;;;;;;;2.23;1.20;;;21.00;56.80;;;;;;5081301;28;20192;-69
2023/12/24 10:41:50;;;;;;;1.50;1.30;;;21.00;56.80;;;;;;5091752;28;20165;-69
2023/12/24 10:44:16;;;;;;;2.10;1.30;;;21.00;56.80;;;;;;5087652;28;20420;-69
2023/12/24 10:46:42;;;;;;;1.90;1.27;;;21.00;56.80;;;;;;5076079;28;20454;-68
2023/12/24 10:49:07;;;;;;;1.33;1.03;;;21.00;56.80;;;;;;5080381;28;20668;-68
2023/12/24 10:51:33;;;;;;;1.23;1.13;;;21.00;56.80;;;;;;5084720;28;20178;-68
2023/12/24 10:53:59;;;;;;;2.13;1.93;;;21.00;56.90;;;;;;5082399;28;20206;-68
2023/12/24 10:56:37;;;;;;;1.63;1.23;;;21.00;56.80;;;;;;5086274;28;20911;-69
2023/12/24 10:59:11;;;;;;;1.90;1.37;;;21.00;56.90;;;;;;5075447;28;20553;-69
2023/12/24 11:01:38;;;;;;;1.67;1.20;;;21.00;56.90;;;;;;5088069;28;20494;-69
2023/12/24 11:04:03;;;;;;;2.10;1.43;;;21.00;56.90;;;;;;5090377;28;20408;-70
2023/12/24 11:06:39;;;;;;;2.60;1.00;;;21.00;56.90;;;;;;5089107;28;20443;-69
2023/12/24 11:09:31;;;;;;;1.80;1.33;;;21.00;56.90;;;;;;5088193;28;20196;-69
2023/12/24 11:11:58;;;;;;;1.30;1.03;;;21.00;56.90;;;;;;5091255;28;20396;-69
2023/12/24 11:14:41;;;;;;;2.00;1.73;;;21.00;56.90;;;;;;5089782;28;20416;-69
2023/12/24 11:17:08;;;;;;;1.70;1.10;;;21.00;56.90;;;;;;5089692;28;20959;-69
2023/12/24 11:19:35;;;;;;;1.63;1.00;;;21.00;57.00;;;;;;5089521;28;21010;-69
2023/12/24 11:22:12;;;;;;;1.50;1.00;;;21.00;56.90;;;;;;5091412;28;20918;-69
2023/12/24 11:24:44;;;;;;;1.73;1.17;;;21.00;56.90;;;;;;5091204;28;20392;-69
2023/12/24 11:27:11;;;;;;;1.70;1.10;;;21.00;56.90;;;;;;5089518;28;20450;-69
2023/12/24 11:29:50;;;;;;;2.07;1.20;;;21.00;56.90;;;;;;5090936;28;20562;-69
2023/12/24 11:32:25;;;;;;;1.50;1.40;;;21.00;56.90;;;;;;5091231;28;20399;-69
2023/12/24 11:34:57;;;;;;;1.40;1.00;;;21.00;56.90;;;;;;5091200;28;20546;-69
2023/12/24 11:37:35;;;;;;;1.70;1.23;;;21.00;56.90;;;;;;5090912;28;20427;-69
2023/12/24 11:40:07;;;;;;;2.20;1.30;;;21.00;56.90;;;;;;5091148;28;20384;-69
2023/12/24 11:42:49;;;;;;;1.90;1.30;;;21.00;56.90;;;;;;5089946;28;20380;-69
2023/12/24 11:45:19;;;;;;;1.83;1.40;;;21.00;56.90;;;;;;5089191;28;20514;-69
2023/12/24 11:47:44;;;;;;;1.97;1.30;;;21.00;56.90;;;;;;5089163;28;20435;-69
2023/12/24 11:50:12;;;;;;;1.53;1.00;;;21.00;56.90;;;;;;5089269;28;20807;-69
2023/12/24 11:52:46;;;;;;;2.43;1.30;;;20.90;56.80;;;;;;5090628;28;20166;-69
2023/12/24 11:55:17;;;;;;;1.80;1.00;;;21.00;56.80;;;;;;5090540;28;20385;-69
2023/12/24 11:57:44;;;;;;;2.53;1.23;;;20.90;56.70;;;;;;5072618;28;20435;-70
2023/12/24 12:00:14;;;;;;;2.53;1.10;;;20.90;56.80;;;;;;5089387;28;20408;-70
2023/12/24 12:02:52;;;;;;;1.60;1.37;;;20.90;56.70;;;;;;5089446;28;20985;-69
2023/12/24 12:05:17;;;;;;;2.00;1.20;;;20.90;56.70;;;;;;5090703;28;20879;-69
2023/12/24 12:07:43;;;;;;;2.80;1.30;;;20.90;56.70;;;;;;5089235;28;20455;-69
2023/12/24 12:10:08;;;;;;;1.53;1.13;;;20.90;56.70;;;;;;5072603;28;20266;-69
2023/12/24 12:12:34;;;;;;;2.13;1.30;;;21.00;56.80;;;;;;5072990;28;20218;-68
2023/12/24 12:14:59;;;;;;;1.90;1.30;;;21.00;56.80;;;;;;5090831;28;20249;-68
2023/12/24 12:17:25;;;;;;;1.87;1.00;;;21.00;56.80;;;;;;5090634;28;20205;-69
2023/12/24 12:19:51;;;;;;;2.27;1.43;;;20.90;56.70;;;;;;5089411;28;20178;-68
2023/12/24 12:22:17;;;;;;;1.90;1.53;;;20.90;56.70;;;;;;5089626;28;20174;-69
2023/12/24 12:24:43;;;;;;;2.20;1.40;;;20.90;56.80;;;;;;5088674;28;20520;-69
2023/12/24 12:27:09;;;;;;;2.43;1.20;;;21.00;56.80;;;;;;5088599;28;20205;-68
2023/12/24 12:29:34;;;;;;;1.60;1.30;;;21.00;56.80;;;;;;5089983;28;20450;-68
2023/12/24 12:32:01;;;;;;;2.43;1.63;;;20.90;56.80;;;;;;5071844;28;20272;-68
2023/12/24 12:34:27;;;;;;;1.90;1.10;;;20.90;56.80;;;;;;5088654;28;20625;-68
2023/12/24 12:36:53;;;;;;;2.30;1.20;;;21.00;56.80;;;;;;5090151;28;20451;-68
2023/12/24 12:39:18;;;;;;;1.93;1.17;;;20.90;56.80;;;;;;5088468;28;20189;-68
2023/12/24 12:41:44;;;;;;;1.40;1.03;;;21.00;56.90;;;;;;5088518;28;20174;-68
2023/12/24 12:44:09;;;;;;;1.80;1.40;;;21.00;56.90;;;;;;5088708;28;20668;-69